createdAt,value
2017-11-05T00:01:57.795Z,100319.72
2017-11-05T00:04:26.198Z,100321.91
2017-11-05T00:06:55.364Z,100317.25
2017-11-05T00:09:23.803Z,100308.48
2017-11-05T00:11:52.220Z,100299.84
2017-11-05T00:14:20.605Z,100303.45
2017-11-05T00:16:49.019Z,100309.88
2017-11-05T00:19:18.246Z,100302.78
2017-11-05T00:21:46.756Z,100296.04
2017-11-05T00:24:15.131Z,100298.31
2017-11-05T00:26:43.508Z,100306.81
2017-11-05T00:29:11.888Z,100311.86
2017-11-05T00:31:40.265Z,100307.86
2017-11-05T00:34:09.461Z,100303.88
2017-11-05T00:36:37.848Z,100300.26
2017-11-05T00:39:06.302Z,100306.62
2017-11-05T00:41:34.770Z,100314.80
2017-11-05T00:44:03.174Z,100306.77
2017-11-05T00:46:31.579Z,100311.44
2017-11-05T00:48:59.965Z,100309.53
2017-11-05T00:51:29.138Z,100308.43
2017-11-05T00:53:57.607Z,100309.08
2017-11-05T00:56:25.991Z,100303.44
2017-11-05T00:58:54.414Z,100300.12
2017-11-05T01:01:23.602Z,100304.83
2017-11-05T01:03:52.189Z,100305.45
2017-11-05T01:06:20.607Z,100298.52
2017-11-05T01:08:49.019Z,100299.62
2017-11-05T01:11:17.487Z,100298.82
2017-11-05T01:13:45.875Z,100299.81
2017-11-05T01:16:14.337Z,100304.53
2017-11-05T01:18:42.869Z,100284.91
2017-11-05T01:21:11.229Z,100292.57
2017-11-05T01:23:39.605Z,100290.00
2017-11-05T01:26:08.029Z,100285.70
2017-11-05T01:28:36.534Z,100292.08
2017-11-05T01:31:04.912Z,100290.41
2017-11-05T01:33:33.364Z,100287.91
2017-11-05T01:36:02.525Z,100292.05
2017-11-05T01:38:30.938Z,100287.17
2017-11-05T01:41:00.087Z,100280.55
2017-11-05T01:43:28.469Z,100278.39
2017-11-05T01:45:56.850Z,100277.05
2017-11-05T01:48:25.231Z,100274.91
2017-11-05T01:50:53.668Z,100279.55
2017-11-05T01:53:22.819Z,100282.38
2017-11-05T01:55:51.200Z,100278.03
2017-11-05T01:58:19.581Z,100275.45
2017-11-05T02:00:47.959Z,100278.25
2017-11-05T02:03:16.348Z,100274.72
2017-11-05T02:05:44.731Z,100268.03
2017-11-05T02:08:13.104Z,100265.50
2017-11-05T02:10:41.476Z,100268.20
2017-11-05T02:13:09.858Z,100264.17
2017-11-05T02:15:38.998Z,100262.02
2017-11-05T02:18:08.143Z,100261.48
2017-11-05T02:20:36.792Z,100264.23
2017-11-05T02:23:05.175Z,100257.55
2017-11-05T02:25:33.554Z,100252.16
2017-11-05T02:28:01.930Z,100251.73
2017-11-05T02:30:30.310Z,100253.13
2017-11-05T02:32:58.724Z,100251.42
2017-11-05T02:35:27.104Z,100255.63
2017-11-05T02:37:55.486Z,100259.62
2017-11-05T02:40:23.863Z,100259.62
2017-11-05T02:42:52.243Z,100260.11
2017-11-05T02:45:20.632Z,100251.67
2017-11-05T02:47:49.013Z,100257.05
2017-11-05T02:50:18.915Z,100262.42
2017-11-05T02:52:47.301Z,100254.80
2017-11-05T02:55:15.693Z,100259.27
2017-11-05T02:57:44.078Z,100260.16
2017-11-05T03:00:12.451Z,100257.97
2017-11-05T03:02:40.825Z,100260.19
2017-11-05T03:05:09.198Z,100254.36
2017-11-05T03:07:37.580Z,100247.14
2017-11-05T03:10:05.978Z,100251.18
2017-11-05T03:12:34.368Z,100241.81
2017-11-05T03:15:03.518Z,100241.30
2017-11-05T03:17:31.899Z,100239.90
2017-11-05T03:20:00.284Z,100247.63
2017-11-05T03:22:28.658Z,100247.02
2017-11-05T03:24:57.049Z,100243.67
2017-11-05T03:27:25.435Z,100247.09
2017-11-05T03:29:53.813Z,100243.67
2017-11-05T03:32:22.187Z,100237.72
2017-11-05T03:34:50.563Z,100241.70
2017-11-05T03:37:18.948Z,100239.55
2017-11-05T03:39:47.308Z,100242.62
2017-11-05T03:42:15.684Z,100246.55
2017-11-05T03:44:44.059Z,100244.64
2017-11-05T03:47:12.442Z,100239.20
2017-11-05T03:49:40.823Z,100242.75
2017-11-05T03:52:09.233Z,100234.67
2017-11-05T03:54:37.609Z,100231.43
2017-11-05T03:57:05.984Z,100235.34
2017-11-05T03:59:34.358Z,100238.95
2017-11-05T04:02:02.741Z,100238.03
2017-11-05T04:04:31.120Z,100235.45
2017-11-05T04:06:59.501Z,100226.04
2017-11-05T04:09:27.877Z,100229.22
2017-11-05T04:11:56.257Z,100231.11
2017-11-05T04:14:24.637Z,100232.57
2017-11-05T04:16:53.017Z,100231.73
2017-11-05T04:19:21.402Z,100231.48
2017-11-05T04:21:49.783Z,100228.91
2017-11-05T04:24:18.155Z,100224.13
2017-11-05T04:26:46.536Z,100227.05
2017-11-05T04:29:14.913Z,100229.55
2017-11-05T04:31:43.296Z,100230.06
2017-11-05T04:34:12.454Z,100228.94
2017-11-05T04:36:40.833Z,100228.58
2017-11-05T04:39:09.212Z,100228.82
2017-11-05T04:41:37.592Z,100231.14
2017-11-05T04:44:05.962Z,100224.53
2017-11-05T04:46:34.332Z,100215.33
2017-11-05T04:49:03.480Z,100221.38
2017-11-05T04:51:31.863Z,100210.42
2017-11-05T04:54:00.243Z,100210.89
2017-11-05T04:56:28.627Z,100216.03
2017-11-05T04:58:57.013Z,100208.30
2017-11-05T05:01:25.382Z,100215.83
2017-11-05T05:03:53.760Z,100215.20
2017-11-05T05:06:22.137Z,100212.36
2017-11-05T05:08:50.517Z,100204.09
2017-11-05T05:11:18.889Z,100200.52
2017-11-05T05:13:47.275Z,100194.92
2017-11-05T05:16:15.643Z,100190.20
2017-11-05T05:18:44.021Z,100196.25
2017-11-05T05:21:12.401Z,100201.48
2017-11-05T05:23:40.785Z,100198.98
2017-11-05T05:26:09.165Z,100199.53
2017-11-05T05:28:37.548Z,100206.47
2017-11-05T05:31:05.929Z,100195.40
2017-11-05T05:33:34.316Z,100194.48
2017-11-05T05:36:02.692Z,100194.97
2017-11-05T05:38:31.842Z,100193.75
2017-11-05T05:41:00.238Z,100186.82
2017-11-05T05:43:28.623Z,100188.76
2017-11-05T05:45:57.005Z,100196.47
2017-11-05T05:48:25.388Z,100206.95
2017-11-05T05:50:53.760Z,100198.14
2017-11-05T05:53:22.138Z,100189.75
2017-11-05T05:55:50.523Z,100182.16
2017-11-05T05:58:18.912Z,100184.39
2017-11-05T06:00:47.300Z,100190.68
2017-11-05T06:03:15.688Z,100190.89
2017-11-05T06:05:44.067Z,100199.08
2017-11-05T06:08:12.446Z,100195.15
2017-11-05T06:10:40.827Z,100196.52
2017-11-05T06:13:09.203Z,100195.96
2017-11-05T06:15:37.579Z,100197.61
2017-11-05T06:18:05.960Z,100202.46
2017-11-05T06:20:34.339Z,100198.38
2017-11-05T06:23:02.715Z,100193.09
2017-11-05T06:25:31.081Z,100190.05
2017-11-05T06:27:59.453Z,100197.94
2017-11-05T06:30:27.836Z,100200.15
2017-11-05T06:32:56.214Z,100200.94
2017-11-05T06:35:24.601Z,100206.59
2017-11-05T06:37:52.986Z,100206.85
2017-11-05T06:40:21.366Z,100214.64
2017-11-05T06:42:49.743Z,100214.41
2017-11-05T06:45:18.122Z,100214.11
2017-11-05T06:47:46.504Z,100211.95
2017-11-05T06:50:14.884Z,100204.50
2017-11-05T06:52:43.262Z,100211.36
2017-11-05T06:55:11.640Z,100213.46
2017-11-05T06:57:40.028Z,100200.25
2017-11-05T07:00:08.406Z,100206.30
2017-11-05T07:02:36.795Z,100205.28
2017-11-05T07:05:05.173Z,100203.75
2017-11-05T07:07:33.549Z,100206.80
2017-11-05T07:10:01.924Z,100203.56
2017-11-05T07:12:30.331Z,100207.86
2017-11-05T07:14:59.476Z,100211.50
2017-11-05T07:17:27.853Z,100206.86
2017-11-05T07:19:56.996Z,100202.12
2017-11-05T07:22:25.378Z,100207.21
2017-11-05T07:24:54.535Z,100200.59
2017-11-05T07:27:22.913Z,100198.33
2017-11-05T07:29:51.300Z,100201.47
2017-11-05T07:32:19.684Z,100200.17
2017-11-05T07:34:48.068Z,100198.16
2017-11-05T07:37:16.443Z,100189.13
2017-11-05T07:39:44.818Z,100195.70
2017-11-05T07:42:13.203Z,100194.83
2017-11-05T07:44:41.583Z,100187.27
2017-11-05T07:47:09.960Z,100196.14
2017-11-05T07:49:38.340Z,100188.88
2017-11-05T07:52:06.719Z,100187.66
2017-11-05T07:54:35.108Z,100178.80
2017-11-05T07:57:03.480Z,100173.67
2017-11-05T07:59:31.855Z,100173.95
2017-11-05T08:02:00.235Z,100173.64
2017-11-05T08:04:28.615Z,100175.87
2017-11-05T08:06:56.986Z,100176.42
2017-11-05T08:09:25.377Z,100183.75
2017-11-05T08:11:53.757Z,100193.30
2017-11-05T08:14:22.135Z,100187.55
2017-11-05T08:16:50.526Z,100188.81
2017-11-05T08:19:18.904Z,100176.84
2017-11-05T08:21:47.399Z,100170.41
2017-11-05T08:24:16.627Z,100167.98
2017-11-05T08:26:45.013Z,100162.91
2017-11-05T08:29:13.400Z,100162.22
2017-11-05T08:31:41.800Z,100154.16
2017-11-05T08:34:10.184Z,100153.31
2017-11-05T08:36:38.579Z,100152.76
2017-11-05T08:39:07.020Z,100149.61
2017-11-05T08:41:35.408Z,100145.79
2017-11-05T08:44:03.783Z,100149.91
2017-11-05T08:46:32.171Z,100143.16
2017-11-05T08:49:00.551Z,100146.77
2017-11-05T08:51:28.931Z,100144.08
2017-11-05T08:53:57.298Z,100144.65
2017-11-05T08:56:25.672Z,100142.56
2017-11-05T08:58:54.059Z,100137.53
2017-11-05T09:01:22.449Z,100145.77
2017-11-05T09:03:50.832Z,100146.69
2017-11-05T09:06:19.214Z,100146.84
2017-11-05T09:08:47.611Z,100145.50
2017-11-05T09:11:15.986Z,100141.09
2017-11-05T09:13:44.364Z,100133.33
2017-11-05T09:16:12.758Z,100139.86
2017-11-05T09:18:41.142Z,100137.59
2017-11-05T09:21:09.520Z,100138.80
2017-11-05T09:23:38.123Z,100137.66
2017-11-05T09:26:08.056Z,100133.44
2017-11-05T09:28:36.436Z,100134.88
2017-11-05T09:31:04.813Z,100135.64
2017-11-05T09:33:33.195Z,100134.67
2017-11-05T09:36:01.571Z,100133.38
2017-11-05T09:38:29.943Z,100129.47
2017-11-05T09:40:59.104Z,100134.80
2017-11-05T09:43:27.491Z,100133.65
2017-11-05T09:45:56.672Z,100127.19
2017-11-05T09:48:25.056Z,100124.44
2017-11-05T09:50:53.436Z,100119.35
2017-11-05T09:53:21.812Z,100116.17
2017-11-05T09:55:50.188Z,100118.23
2017-11-05T09:58:18.574Z,100112.20
2017-11-05T10:00:47.740Z,100118.59
2017-11-05T10:03:16.636Z,100111.37
2017-11-05T10:05:45.023Z,100111.58
2017-11-05T10:08:13.415Z,100115.02
2017-11-05T10:10:41.795Z,100108.06
2017-11-05T10:13:10.179Z,100115.37
2017-11-05T10:15:38.575Z,100106.95
2017-11-05T10:18:06.954Z,100094.73
2017-11-05T10:20:35.952Z,100093.44
2017-11-05T10:23:05.111Z,100083.63
2017-11-05T10:25:33.487Z,100087.34
2017-11-05T10:28:01.864Z,100098.66
2017-11-05T10:30:30.250Z,100092.91
2017-11-05T10:32:58.632Z,100091.84
2017-11-05T10:35:27.016Z,100098.77
2017-11-05T10:37:55.386Z,100102.17
2017-11-05T10:40:23.772Z,100107.25
2017-11-05T10:42:52.158Z,100109.36
2017-11-05T10:45:20.531Z,100106.91
2017-11-05T10:47:48.908Z,100107.47
2017-11-05T10:50:17.296Z,100109.54
2017-11-05T10:52:45.670Z,100104.44
2017-11-05T10:55:14.059Z,100103.67
2017-11-05T10:57:42.431Z,100102.23
2017-11-05T11:00:10.813Z,100107.02
2017-11-05T11:02:39.192Z,100113.25
2017-11-05T11:05:07.559Z,100118.34
2017-11-05T11:07:35.958Z,100123.17
2017-11-05T11:10:04.330Z,100127.77
2017-11-05T11:12:32.707Z,100127.95
2017-11-05T11:15:01.089Z,100127.85
2017-11-05T11:17:29.464Z,100133.20
2017-11-05T11:19:57.846Z,100125.30
2017-11-05T11:22:26.234Z,100118.87
2017-11-05T11:24:54.612Z,100113.46
2017-11-05T11:27:23.009Z,100114.31
2017-11-05T11:29:52.162Z,100109.00
2017-11-05T11:32:20.543Z,100113.28
2017-11-05T11:34:48.928Z,100113.81
2017-11-05T11:37:17.313Z,100114.45
2017-11-05T11:39:45.691Z,100111.37
2017-11-05T11:42:14.077Z,100104.75
2017-11-05T11:44:43.228Z,100100.97
2017-11-05T11:47:11.599Z,100095.13
2017-11-05T11:49:40.742Z,100089.27
2017-11-05T11:52:09.125Z,100087.95
2017-11-05T11:54:37.507Z,100086.05
2017-11-05T11:57:06.651Z,100091.59
2017-11-05T11:59:35.797Z,100089.91
2017-11-05T12:02:04.184Z,100092.73
2017-11-05T12:04:32.560Z,100081.11
2017-11-05T12:07:00.938Z,100081.80
2017-11-05T12:09:29.324Z,100074.44
2017-11-05T12:11:57.736Z,100075.91
2017-11-05T12:14:26.888Z,100071.86
2017-11-05T12:16:55.275Z,100070.24
2017-11-05T12:19:23.660Z,100074.08
2017-11-05T12:21:52.045Z,100068.17
2017-11-05T12:24:20.416Z,100065.63
2017-11-05T12:26:48.786Z,100072.50
2017-11-05T12:29:17.173Z,100072.67
2017-11-05T12:31:45.540Z,100073.34
2017-11-05T12:34:13.924Z,100060.12
2017-11-05T12:36:42.306Z,100058.88
2017-11-05T12:39:10.686Z,100051.70
2017-11-05T12:41:39.073Z,100055.35
2017-11-05T12:44:07.447Z,100053.66
2017-11-05T12:46:35.823Z,100060.61
2017-11-05T12:49:04.918Z,100056.53
2017-11-05T12:51:33.322Z,100055.24
2017-11-05T12:54:01.704Z,100057.89
2017-11-05T12:56:30.081Z,100054.16
2017-11-05T12:58:58.470Z,100051.02
2017-11-05T13:01:27.626Z,100048.80
2017-11-05T13:03:56.018Z,100050.84
2017-11-05T13:06:24.401Z,100054.99
2017-11-05T13:08:52.788Z,100055.25
2017-11-05T13:11:21.873Z,100055.27
2017-11-05T13:13:50.246Z,100053.30
2017-11-05T13:16:18.625Z,100061.63
2017-11-05T13:18:47.002Z,100066.41
2017-11-05T13:21:15.388Z,100066.65
2017-11-05T13:23:43.767Z,100064.27
2017-11-05T13:26:12.912Z,100067.67
2017-11-05T13:28:42.056Z,100066.92
2017-11-05T13:31:10.457Z,100063.86
2017-11-05T13:33:39.631Z,100069.44
2017-11-05T13:36:08.016Z,100072.55
2017-11-05T13:38:36.434Z,100078.75
2017-11-05T13:41:05.561Z,100073.14
2017-11-05T13:43:33.928Z,100079.58
2017-11-05T13:46:03.083Z,100072.52
2017-11-05T13:48:31.460Z,100069.37
2017-11-05T13:50:59.823Z,100072.79
2017-11-05T13:53:28.190Z,100088.66
2017-11-05T13:55:56.563Z,100080.66
2017-11-05T13:58:24.927Z,100076.84
2017-11-05T14:00:53.303Z,100079.12
2017-11-05T14:03:21.684Z,100089.96
2017-11-05T14:05:50.066Z,100087.39
2017-11-05T14:08:19.298Z,100085.78
2017-11-05T14:10:47.690Z,100085.76
2017-11-05T14:13:16.080Z,100085.19
2017-11-05T14:15:44.463Z,100090.76
2017-11-05T14:18:12.840Z,100091.44
2017-11-05T14:20:41.463Z,100086.66
2017-11-05T14:23:09.849Z,100089.27
2017-11-05T14:25:38.240Z,100100.45
2017-11-05T14:28:06.661Z,100105.98
2017-11-05T14:30:35.107Z,100105.37
2017-11-05T14:33:03.514Z,100101.37
2017-11-05T14:35:31.899Z,100097.95
2017-11-05T14:38:00.281Z,100099.05
2017-11-05T14:40:28.665Z,100101.02
2017-11-05T14:42:57.052Z,100103.88
2017-11-05T14:45:25.435Z,100108.63
2017-11-05T14:47:54.604Z,100110.70
2017-11-05T14:50:23.005Z,100113.73
2017-11-05T14:52:51.395Z,100115.76
2017-11-05T14:55:20.571Z,100123.72
2017-11-05T14:57:48.963Z,100128.10
2017-11-05T15:00:17.340Z,100126.88
2017-11-05T15:02:45.720Z,100132.45
2017-11-05T15:05:14.100Z,100125.84
2017-11-05T15:07:42.521Z,100128.37
2017-11-05T15:10:10.903Z,100129.80
2017-11-05T15:12:39.280Z,100133.55
2017-11-05T15:15:07.655Z,100133.39
2017-11-05T15:17:36.042Z,100129.50
2017-11-05T15:20:04.410Z,100147.50
2017-11-05T15:22:32.790Z,100149.24
2017-11-05T15:25:01.175Z,100153.48
2017-11-05T15:27:29.591Z,100149.50
2017-11-05T15:29:57.971Z,100161.46
2017-11-05T15:32:26.381Z,100170.40
2017-11-05T15:34:55.529Z,100174.84
2017-11-05T15:37:23.924Z,100169.72
2017-11-05T15:39:52.308Z,100169.48
2017-11-05T15:42:20.703Z,100169.66
2017-11-05T15:44:49.096Z,100169.41
2017-11-05T15:47:17.476Z,100166.53
2017-11-05T15:49:46.618Z,100170.08
2017-11-05T15:52:14.994Z,100174.55
2017-11-05T15:54:43.371Z,100189.02
2017-11-05T15:57:11.740Z,100182.84
2017-11-05T15:59:40.124Z,100187.69
2017-11-05T16:02:08.496Z,100186.98
2017-11-05T16:04:36.876Z,100196.00
2017-11-05T16:07:05.246Z,100198.20
2017-11-05T16:09:34.392Z,100202.86
2017-11-05T16:12:02.771Z,100211.71
2017-11-05T16:14:31.145Z,100213.09
2017-11-05T16:16:59.531Z,100211.02
2017-11-05T16:19:27.900Z,100216.91
2017-11-05T16:21:56.288Z,100212.92
2017-11-05T16:24:24.657Z,100213.33
2017-11-05T16:26:53.045Z,100223.23
2017-11-05T16:29:21.413Z,100232.98
2017-11-05T16:31:49.784Z,100235.97
2017-11-05T16:34:18.160Z,100250.14
2017-11-05T16:36:46.541Z,100255.45
2017-11-05T16:39:14.917Z,100250.05
2017-11-05T16:41:43.282Z,100261.94
2017-11-05T16:44:11.659Z,100277.36
2017-11-05T16:46:40.042Z,100284.14
2017-11-05T16:49:08.411Z,100284.39
2017-11-05T16:51:37.552Z,100287.87
2017-11-05T16:54:05.926Z,100308.15
2017-11-05T16:56:34.303Z,100306.31
2017-11-05T16:59:02.700Z,100310.21
2017-11-05T17:01:31.075Z,100318.39
2017-11-05T17:03:59.448Z,100329.00
2017-11-05T17:06:27.819Z,100349.98
2017-11-05T17:08:56.196Z,100350.43
2017-11-05T17:11:24.562Z,100351.09
2017-11-05T17:13:52.928Z,100345.33
2017-11-05T17:16:21.302Z,100352.66
2017-11-05T17:18:49.679Z,100359.89
2017-11-05T17:21:18.055Z,100358.79
2017-11-05T17:23:47.191Z,100370.73
2017-11-05T17:26:15.562Z,100374.84
2017-11-05T17:28:43.925Z,100381.20
2017-11-05T17:31:12.281Z,100380.09
2017-11-05T17:33:41.429Z,100381.14
2017-11-05T17:36:09.809Z,100392.65
2017-11-05T17:38:38.187Z,100399.01
2017-11-05T17:41:06.556Z,100396.85
2017-11-05T17:43:34.927Z,100412.63
2017-11-05T17:46:03.313Z,100420.33
2017-11-05T17:48:31.688Z,100425.34
2017-11-05T17:51:00.059Z,100424.48
2017-11-05T17:53:28.425Z,100427.70
2017-11-05T17:55:56.800Z,100429.27
2017-11-05T17:58:25.936Z,100430.25
2017-11-05T18:00:54.347Z,100430.43
2017-11-05T18:03:22.732Z,100437.66
2017-11-05T18:05:51.884Z,100433.84
2017-11-05T18:08:20.263Z,100434.38
2017-11-05T18:10:48.640Z,100445.59
2017-11-05T18:13:17.020Z,100455.14
2017-11-05T18:15:45.387Z,100457.91
2017-11-05T18:18:13.759Z,100456.18
2017-11-05T18:20:42.144Z,100464.98
2017-11-05T18:23:10.516Z,100477.22
2017-11-05T18:25:38.893Z,100471.41
2017-11-05T18:28:07.269Z,100480.16
2017-11-05T18:30:35.646Z,100480.92
2017-11-05T18:33:04.024Z,100476.06
2017-11-05T18:35:33.162Z,100482.38
2017-11-05T18:38:01.540Z,100487.02
2017-11-05T18:40:29.912Z,100486.77
2017-11-05T18:42:58.281Z,100494.89
2017-11-05T18:45:26.684Z,100490.95
2017-11-05T18:47:55.054Z,100501.86
2017-11-05T18:50:23.504Z,100497.55
2017-11-05T18:52:51.876Z,100503.59
2017-11-05T18:55:21.065Z,100504.67
2017-11-05T18:57:50.211Z,100510.66
2017-11-05T19:00:18.590Z,100515.61
2017-11-05T19:02:46.971Z,100520.62
2017-11-05T19:05:15.381Z,100535.48
2017-11-05T19:07:43.746Z,100534.14
2017-11-05T19:10:12.110Z,100548.42
2017-11-05T19:12:40.474Z,100548.75
2017-11-05T19:15:08.847Z,100552.30
2017-11-05T19:17:37.214Z,100549.40
2017-11-05T19:20:05.583Z,100561.03
2017-11-05T19:22:33.955Z,100570.78
2017-11-05T19:25:03.092Z,100567.70
2017-11-05T19:27:31.471Z,100572.78
2017-11-05T19:29:59.833Z,100568.84
2017-11-05T19:32:28.236Z,100571.28
2017-11-05T19:34:56.606Z,100568.31
2017-11-05T19:37:24.972Z,100579.31
2017-11-05T19:39:53.339Z,100581.80
2017-11-05T19:42:21.712Z,100586.50
2017-11-05T19:44:50.854Z,100582.19
2017-11-05T19:47:19.227Z,100591.36
2017-11-05T19:49:47.613Z,100599.45
2017-11-05T19:52:17.676Z,100608.78
2017-11-05T19:54:46.823Z,100607.72
2017-11-05T19:57:15.201Z,100615.86
2017-11-05T19:59:43.694Z,100616.83
2017-11-05T20:02:12.077Z,100614.52
2017-11-05T20:04:40.448Z,100620.82
2017-11-05T20:07:09.354Z,100627.03
2017-11-05T20:09:37.755Z,100625.78
2017-11-05T20:12:06.924Z,100627.78
2017-11-05T20:14:35.535Z,100626.00
2017-11-05T20:17:05.040Z,100634.63
2017-11-05T20:19:34.207Z,100634.14
2017-11-05T20:22:02.583Z,100627.95
2017-11-05T20:24:30.952Z,100625.25
2017-11-05T20:26:59.325Z,100631.88
2017-11-05T20:29:27.683Z,100632.20
2017-11-05T20:31:56.063Z,100638.03
2017-11-05T20:34:24.440Z,100636.30
2017-11-05T20:36:52.814Z,100630.81
2017-11-05T20:39:21.950Z,100638.02
2017-11-05T20:41:50.323Z,100639.91
2017-11-05T20:44:18.692Z,100644.44
2017-11-05T20:46:47.063Z,100640.50
2017-11-05T20:49:15.440Z,100643.69
2017-11-05T20:51:43.823Z,100648.38
2017-11-05T20:54:12.236Z,100652.53
2017-11-05T20:56:40.637Z,100653.49
2017-11-05T20:59:09.126Z,100652.58
2017-11-05T21:01:37.537Z,100658.45
2017-11-05T21:04:05.979Z,100663.09
2017-11-05T21:06:34.385Z,100666.70
2017-11-05T21:09:03.527Z,100665.79
2017-11-05T21:11:31.930Z,100666.11
2017-11-05T21:14:01.076Z,100665.26
2017-11-05T21:16:29.457Z,100672.09
2017-11-05T21:18:57.836Z,100671.28
2017-11-05T21:21:26.210Z,100676.30
2017-11-05T21:23:54.585Z,100666.00
2017-11-05T21:26:22.971Z,100662.39
2017-11-05T21:28:51.352Z,100661.63
2017-11-05T21:31:19.723Z,100664.77
2017-11-05T21:33:48.100Z,100666.22
2017-11-05T21:36:16.476Z,100672.91
2017-11-05T21:38:44.855Z,100674.35
2017-11-05T21:41:14.005Z,100676.61
2017-11-05T21:43:42.378Z,100683.30
2017-11-05T21:46:10.761Z,100687.34
2017-11-05T21:48:39.143Z,100692.63
2017-11-05T21:51:07.515Z,100694.52
2017-11-05T21:53:35.914Z,100695.86
2017-11-05T21:56:04.311Z,100702.12
2017-11-05T21:58:32.686Z,100706.11
2017-11-05T22:01:01.835Z,100703.83
2017-11-05T22:03:30.219Z,100710.09
2017-11-05T22:05:58.594Z,100709.29
2017-11-05T22:08:26.976Z,100714.63
2017-11-05T22:10:55.357Z,100715.52
2017-11-05T22:13:23.729Z,100705.67
2017-11-05T22:15:52.104Z,100712.36
2017-11-05T22:18:20.483Z,100716.45
2017-11-05T22:20:48.856Z,100719.16
2017-11-05T22:23:17.222Z,100724.69
2017-11-05T22:25:45.599Z,100729.70
2017-11-05T22:28:13.971Z,100734.72
2017-11-05T22:30:43.115Z,100741.55
2017-11-05T22:33:11.500Z,100746.13
2017-11-05T22:35:39.896Z,100754.92
2017-11-05T22:38:08.275Z,100753.84
2017-11-05T22:40:37.423Z,100767.38
2017-11-05T22:43:05.802Z,100760.59
2017-11-05T22:45:34.189Z,100764.69
2017-11-05T22:48:02.564Z,100768.98
2017-11-05T22:50:30.935Z,100765.48
2017-11-05T22:52:59.306Z,100771.88
2017-11-05T22:55:28.447Z,100758.03
2017-11-05T22:57:56.823Z,100763.15
2017-11-05T23:00:25.199Z,100762.42
2017-11-05T23:02:53.583Z,100771.00
2017-11-05T23:05:21.960Z,100772.30
2017-11-05T23:07:50.340Z,100766.96
2017-11-05T23:10:18.723Z,100778.88
2017-11-05T23:12:47.121Z,100783.04
2017-11-05T23:15:15.497Z,100787.14
2017-11-05T23:17:44.649Z,100801.09
2017-11-05T23:20:13.036Z,100806.19
2017-11-05T23:22:41.419Z,100807.98
2017-11-05T23:25:09.788Z,100812.06
2017-11-05T23:27:38.164Z,100813.98
2017-11-05T23:30:06.539Z,100817.60
2017-11-05T23:32:35.799Z,100821.83
2017-11-05T23:35:04.179Z,100816.69
2017-11-05T23:37:32.560Z,100823.53
2017-11-05T23:40:00.935Z,100831.13
2017-11-05T23:42:29.302Z,100839.73
2017-11-05T23:44:57.684Z,100841.13
2017-11-05T23:47:26.059Z,100843.81
2017-11-05T23:49:54.435Z,100845.07
2017-11-05T23:52:22.812Z,100849.63
2017-11-05T23:54:51.191Z,100853.25
2017-11-05T23:57:19.578Z,100858.73
2017-11-05T23:59:47.952Z,100864.64
